메인 페이지
METAR-TAF:

METAR-TAF

공항 :

Çorlu, 터키

위도: 41-08N, 경도: 027-55E, 고도: 173m

현재 날씨관측

예보는 47분 전, 17:20시(UTC)에 발표되었습니다.
북북동14kt
온도 12°C
습도 67%
기압 1016 hPa
시정 10km 이상
고도 2300ft 상공 구름 보통
고도 8000ft 상공 구름 많음

METAR: LTBU 241720Z 02014KT 9999 SCT023 BKN080 12/06 Q1016 RMK RWY22 03013KT

시각: 21:07 (18:07 UTC)

예보

예보는 1 시간 27분 전, 16:40시(UTC)에 발표되었습니다.
예보 대상 시간: 24일 18시부터 25일 18시까지 (UTC)
여러 방향의 바람 2kt
시정 10km 이상
고도 3000ft 상공 구름 보통
고도 10000ft 상공 구름 많음
일시적
24일 18시부터 24일 20시까지 (UTC)
고도 2000ft 상공 구름 많음
고도 8000ft 상공 구름 많음
약한소나기
전환 중
24일 22시부터 25일 02시까지 (UTC)
시정 10km 이상
1500m 미만 상공 구름 및 적란운 없음
전환 중
25일 07시부터 25일 10시까지 (UTC)
12kt

TAF: LTBU 241640Z 2418/2518 VRB02KT 9999 SCT030 BKN100 TEMPO 2418/2420 -SHRA BKN020 BKN080 BECMG 2422/2502 CAVOK BECMG 2507/2510 19012KT

4,000개 이상의 공항 관측 자료 및 예보 (METAR 및 TAF 보고).

지도상에서 검색 가능한 기상관측소가 노란 점과 빨간 점으로 표시되어 있습니다.

기상관측소 명을 보려면 표시 위로 마우스를 이동하세요.

날씨 관측과 예보를 보려면 클릭하세요.

지도 변경 : 확대하려면 엑스 표시가 있는 녹색 버튼, 축소하려면 빼기 표시가 있는 녹색 버튼, 다음 페이지의 지도를 보려면 녹색 화살표를 클릭하세요.


METAR-TAF: